sensor_id;sensor_type;location;lat;lon;timestamp;P1;durP1;ratioP1;P2;durP2;ratioP2
11854;SDS011;5987;53.140;8.904;2022-10-16T00:02:01;5.37;;;2.60;;
11854;SDS011;5987;53.140;8.904;2022-10-16T00:05:06;5.70;;;2.50;;
11854;SDS011;5987;53.140;8.904;2022-10-16T00:08:10;6.57;;;2.20;;
11854;SDS011;5987;53.140;8.904;2022-10-16T00:11:17;5.13;;;2.50;;
11854;SDS011;5987;53.140;8.904;2022-10-16T00:14:23;5.73;;;2.30;;
11854;SDS011;5987;53.140;8.904;2022-10-16T00:17:26;1.93;;;1.70;;
11854;SDS011;5987;53.140;8.904;2022-10-16T00:20:30;6.03;;;2.13;;
11854;SDS011;5987;53.140;8.904;2022-10-16T00:23:38;4.03;;;2.20;;
11854;SDS011;5987;53.140;8.904;2022-10-16T00:26:43;2.87;;;2.03;;
11854;SDS011;5987;53.140;8.904;2022-10-16T00:29:49;4.23;;;1.70;;
11854;SDS011;5987;53.140;8.904;2022-10-16T00:32:53;6.97;;;2.30;;
11854;SDS011;5987;53.140;8.904;2022-10-16T00:35:57;5.07;;;1.80;;
11854;SDS011;5987;53.140;8.904;2022-10-16T00:39:01;4.27;;;1.70;;
11854;SDS011;5987;53.140;8.904;2022-10-16T00:42:09;5.23;;;2.20;;
11854;SDS011;5987;53.140;8.904;2022-10-16T00:45:17;3.33;;;1.50;;
11854;SDS011;5987;53.140;8.904;2022-10-16T00:48:20;1.97;;;1.63;;
11854;SDS011;5987;53.140;8.904;2022-10-16T00:51:25;2.83;;;1.83;;
11854;SDS011;5987;53.140;8.904;2022-10-16T00:54:35;5.50;;;2.07;;
11854;SDS011;5987;53.140;8.904;2022-10-16T00:57:40;2.70;;;2.07;;
11854;SDS011;5987;53.140;8.904;2022-10-16T01:00:46;5.90;;;1.83;;
11854;SDS011;5987;53.140;8.904;2022-10-16T01:03:50;5.00;;;1.97;;
11854;SDS011;5987;53.140;8.904;2022-10-16T01:06:55;2.40;;;1.87;;
11854;SDS011;5987;53.140;8.904;2022-10-16T01:10:14;1.93;;;1.57;;
11854;SDS011;5987;53.140;8.904;2022-10-16T01:13:32;5.30;;;2.00;;
11854;SDS011;5987;53.140;8.904;2022-10-16T01:16:44;5.33;;;2.17;;
11854;SDS011;5987;53.140;8.904;2022-10-16T01:20:04;2.37;;;1.57;;
11854;SDS011;5987;53.140;8.904;2022-10-16T01:23:21;3.70;;;1.87;;
11854;SDS011;5987;53.140;8.904;2022-10-16T01:26:50;4.53;;;1.70;;
11854;SDS011;5987;53.140;8.904;2022-10-16T01:30:21;3.73;;;1.90;;
11854;SDS011;5987;53.140;8.904;2022-10-16T01:33:30;2.77;;;1.93;;
11854;SDS011;5987;53.140;8.904;2022-10-16T01:36:41;3.60;;;2.17;;
11854;SDS011;5987;53.140;8.904;2022-10-16T01:39:52;4.43;;;1.90;;
11854;SDS011;5987;53.140;8.904;2022-10-16T01:43:05;3.00;;;1.87;;
11854;SDS011;5987;53.140;8.904;2022-10-16T01:46:16;3.73;;;1.70;;
11854;SDS011;5987;53.140;8.904;2022-10-16T01:49:25;6.53;;;1.90;;
11854;SDS011;5987;53.140;8.904;2022-10-16T01:52:36;4.40;;;2.40;;
11854;SDS011;5987;53.140;8.904;2022-10-16T01:55:46;5.17;;;2.10;;
11854;SDS011;5987;53.140;8.904;2022-10-16T01:58:54;3.17;;;2.17;;
11854;SDS011;5987;53.140;8.904;2022-10-16T02:02:05;6.27;;;1.97;;
11854;SDS011;5987;53.140;8.904;2022-10-16T02:05:14;7.37;;;1.93;;
11854;SDS011;5987;53.140;8.904;2022-10-16T02:08:25;4.20;;;2.30;;
11854;SDS011;5987;53.140;8.904;2022-10-16T02:11:33;5.03;;;2.10;;
11854;SDS011;5987;53.140;8.904;2022-10-16T02:14:39;3.70;;;2.10;;
11854;SDS011;5987;53.140;8.904;2022-10-16T02:17:43;3.10;;;2.23;;
11854;SDS011;5987;53.140;8.904;2022-10-16T02:20:48;4.77;;;2.07;;
11854;SDS011;5987;53.140;8.904;2022-10-16T02:24:00;2.33;;;2.00;;
11854;SDS011;5987;53.140;8.904;2022-10-16T02:27:11;3.27;;;2.00;;
11854;SDS011;5987;53.140;8.904;2022-10-16T02:30:25;5.00;;;2.10;;
11854;SDS011;5987;53.140;8.904;2022-10-16T02:33:37;4.40;;;2.30;;
11854;SDS011;5987;53.140;8.904;2022-10-16T02:36:44;4.40;;;2.07;;
11854;SDS011;5987;53.140;8.904;2022-10-16T02:39:51;4.23;;;2.00;;
11854;SDS011;5987;53.140;8.904;2022-10-16T02:42:57;6.07;;;2.40;;
11854;SDS011;5987;53.140;8.904;2022-10-16T02:46:02;3.90;;;2.10;;
11854;SDS011;5987;53.140;8.904;2022-10-16T02:49:06;4.40;;;2.67;;
11854;SDS011;5987;53.140;8.904;2022-10-16T02:52:10;5.67;;;2.43;;
11854;SDS011;5987;53.140;8.904;2022-10-16T02:55:14;2.33;;;2.03;;
11854;SDS011;5987;53.140;8.904;2022-10-16T02:58:17;3.23;;;2.27;;
11854;SDS011;5987;53.140;8.904;2022-10-16T03:01:22;4.73;;;2.50;;
11854;SDS011;5987;53.140;8.904;2022-10-16T03:04:26;3.80;;;2.50;;
11854;SDS011;5987;53.140;8.904;2022-10-16T03:07:30;3.50;;;2.40;;
11854;SDS011;5987;53.140;8.904;2022-10-16T03:10:34;7.77;;;2.90;;
11854;SDS011;5987;53.140;8.904;2022-10-16T03:13:37;6.33;;;2.30;;
11854;SDS011;5987;53.140;8.904;2022-10-16T03:16:43;3.63;;;2.43;;
11854;SDS011;5987;53.140;8.904;2022-10-16T03:19:46;4.90;;;2.00;;
11854;SDS011;5987;53.140;8.904;2022-10-16T03:22:50;3.93;;;2.00;;
11854;SDS011;5987;53.140;8.904;2022-10-16T03:25:54;5.90;;;2.43;;
11854;SDS011;5987;53.140;8.904;2022-10-16T03:28:57;5.60;;;2.63;;
11854;SDS011;5987;53.140;8.904;2022-10-16T03:32:02;3.07;;;2.40;;
11854;SDS011;5987;53.140;8.904;2022-10-16T03:35:06;3.53;;;2.50;;
11854;SDS011;5987;53.140;8.904;2022-10-16T03:38:11;4.00;;;2.67;;
11854;SDS011;5987;53.140;8.904;2022-10-16T03:41:14;5.27;;;2.70;;
11854;SDS011;5987;53.140;8.904;2022-10-16T03:44:18;4.80;;;2.90;;
11854;SDS011;5987;53.140;8.904;2022-10-16T03:47:23;7.07;;;3.27;;
11854;SDS011;5987;53.140;8.904;2022-10-16T03:50:27;4.30;;;2.77;;
11854;SDS011;5987;53.140;8.904;2022-10-16T03:53:30;6.37;;;3.80;;
11854;SDS011;5987;53.140;8.904;2022-10-16T03:56:34;4.40;;;3.13;;
11854;SDS011;5987;53.140;8.904;2022-10-16T03:59:38;8.43;;;3.70;;
11854;SDS011;5987;53.140;8.904;2022-10-16T04:02:43;7.63;;;4.00;;
11854;SDS011;5987;53.140;8.904;2022-10-16T04:05:51;6.47;;;4.10;;
11854;SDS011;5987;53.140;8.904;2022-10-16T04:08:55;8.07;;;4.83;;
11854;SDS011;5987;53.140;8.904;2022-10-16T04:11:59;9.83;;;5.73;;
11854;SDS011;5987;53.140;8.904;2022-10-16T04:15:03;9.40;;;5.53;;
11854;SDS011;5987;53.140;8.904;2022-10-16T04:18:08;10.13;;;5.30;;
11854;SDS011;5987;53.140;8.904;2022-10-16T04:21:12;10.07;;;5.60;;
11854;SDS011;5987;53.140;8.904;2022-10-16T04:24:15;9.53;;;5.73;;
11854;SDS011;5987;53.140;8.904;2022-10-16T04:27:19;8.07;;;5.53;;
11854;SDS011;5987;53.140;8.904;2022-10-16T04:30:22;10.53;;;7.47;;
11854;SDS011;5987;53.140;8.904;2022-10-16T04:33:27;10.03;;;6.40;;
11854;SDS011;5987;53.140;8.904;2022-10-16T04:36:31;9.43;;;7.03;;
11854;SDS011;5987;53.140;8.904;2022-10-16T04:39:35;10.20;;;6.60;;
11854;SDS011;5987;53.140;8.904;2022-10-16T04:42:38;11.50;;;7.13;;
11854;SDS011;5987;53.140;8.904;2022-10-16T04:45:43;12.77;;;7.63;;
11854;SDS011;5987;53.140;8.904;2022-10-16T04:48:48;17.03;;;8.57;;
11854;SDS011;5987;53.140;8.904;2022-10-16T04:51:51;16.07;;;8.73;;
11854;SDS011;5987;53.140;8.904;2022-10-16T04:54:55;12.17;;;8.23;;
11854;SDS011;5987;53.140;8.904;2022-10-16T04:58:02;13.90;;;8.87;;
11854;SDS011;5987;53.140;8.904;2022-10-16T05:01:06;15.73;;;9.50;;
11854;SDS011;5987;53.140;8.904;2022-10-16T05:04:11;14.43;;;9.73;;
11854;SDS011;5987;53.140;8.904;2022-10-16T05:07:16;15.70;;;8.60;;
11854;SDS011;5987;53.140;8.904;2022-10-16T05:10:20;12.07;;;9.03;;
11854;SDS011;5987;53.140;8.904;2022-10-16T05:13:24;16.43;;;9.50;;
11854;SDS011;5987;53.140;8.904;2022-10-16T05:16:27;13.60;;;8.83;;
11854;SDS011;5987;53.140;8.904;2022-10-16T05:19:33;13.47;;;9.03;;
11854;SDS011;5987;53.140;8.904;2022-10-16T05:22:37;15.27;;;9.70;;
11854;SDS011;5987;53.140;8.904;2022-10-16T05:25:41;17.00;;;10.03;;
11854;SDS011;5987;53.140;8.904;2022-10-16T05:28:44;14.07;;;10.17;;
11854;SDS011;5987;53.140;8.904;2022-10-16T05:31:49;16.87;;;9.73;;
11854;SDS011;5987;53.140;8.904;2022-10-16T05:34:55;15.17;;;10.70;;
11854;SDS011;5987;53.140;8.904;2022-10-16T05:38:00;14.80;;;10.90;;
11854;SDS011;5987;53.140;8.904;2022-10-16T05:41:05;17.13;;;10.37;;
11854;SDS011;5987;53.140;8.904;2022-10-16T05:44:09;19.63;;;10.93;;
11854;SDS011;5987;53.140;8.904;2022-10-16T05:47:13;17.73;;;10.33;;
11854;SDS011;5987;53.140;8.904;2022-10-16T05:50:19;14.07;;;10.43;;
11854;SDS011;5987;53.140;8.904;2022-10-16T05:53:22;14.93;;;10.30;;
11854;SDS011;5987;53.140;8.904;2022-10-16T05:56:27;16.67;;;10.97;;
11854;SDS011;5987;53.140;8.904;2022-10-16T05:59:31;16.00;;;10.87;;
11854;SDS011;5987;53.140;8.904;2022-10-16T06:02:35;17.23;;;11.00;;
11854;SDS011;5987;53.140;8.904;2022-10-16T06:05:40;16.63;;;11.10;;
11854;SDS011;5987;53.140;8.904;2022-10-16T06:08:44;15.57;;;10.30;;
11854;SDS011;5987;53.140;8.904;2022-10-16T06:11:50;12.73;;;9.97;;
11854;SDS011;5987;53.140;8.904;2022-10-16T06:14:54;16.50;;;10.53;;
11854;SDS011;5987;53.140;8.904;2022-10-16T06:17:57;16.57;;;11.20;;
11854;SDS011;5987;53.140;8.904;2022-10-16T06:21:08;14.73;;;10.13;;
11854;SDS011;5987;53.140;8.904;2022-10-16T06:24:13;15.90;;;10.30;;
11854;SDS011;5987;53.140;8.904;2022-10-16T06:27:16;16.07;;;11.17;;
11854;SDS011;5987;53.140;8.904;2022-10-16T06:30:20;13.83;;;9.53;;
11854;SDS011;5987;53.140;8.904;2022-10-16T06:33:24;14.50;;;10.67;;
11854;SDS011;5987;53.140;8.904;2022-10-16T06:36:29;12.77;;;9.27;;
11854;SDS011;5987;53.140;8.904;2022-10-16T06:39:32;14.10;;;9.00;;
11854;SDS011;5987;53.140;8.904;2022-10-16T06:42:36;11.27;;;9.17;;
11854;SDS011;5987;53.140;8.904;2022-10-16T06:45:39;12.77;;;8.77;;
11854;SDS011;5987;53.140;8.904;2022-10-16T06:48:43;11.67;;;9.60;;
11854;SDS011;5987;53.140;8.904;2022-10-16T06:51:48;13.97;;;9.43;;
11854;SDS011;5987;53.140;8.904;2022-10-16T06:54:52;10.57;;;8.63;;
11854;SDS011;5987;53.140;8.904;2022-10-16T06:57:56;13.10;;;8.77;;
11854;SDS011;5987;53.140;8.904;2022-10-16T07:00:59;12.07;;;8.87;;
11854;SDS011;5987;53.140;8.904;2022-10-16T07:04:03;11.10;;;8.57;;
11854;SDS011;5987;53.140;8.904;2022-10-16T07:07:08;12.60;;;9.30;;
11854;SDS011;5987;53.140;8.904;2022-10-16T07:10:12;15.17;;;8.57;;
11854;SDS011;5987;53.140;8.904;2022-10-16T07:13:16;13.57;;;9.73;;
11854;SDS011;5987;53.140;8.904;2022-10-16T07:16:20;13.03;;;8.30;;
11854;SDS011;5987;53.140;8.904;2022-10-16T07:19:26;13.17;;;9.10;;
11854;SDS011;5987;53.140;8.904;2022-10-16T07:22:36;13.73;;;8.77;;
11854;SDS011;5987;53.140;8.904;2022-10-16T07:25:39;12.13;;;8.40;;
11854;SDS011;5987;53.140;8.904;2022-10-16T07:28:43;11.67;;;8.17;;
11854;SDS011;5987;53.140;8.904;2022-10-16T07:31:47;11.60;;;8.73;;
11854;SDS011;5987;53.140;8.904;2022-10-16T07:34:51;11.83;;;7.73;;
11854;SDS011;5987;53.140;8.904;2022-10-16T07:37:58;12.60;;;8.50;;
11854;SDS011;5987;53.140;8.904;2022-10-16T07:41:03;9.87;;;7.67;;
11854;SDS011;5987;53.140;8.904;2022-10-16T07:44:10;9.63;;;6.87;;
11854;SDS011;5987;53.140;8.904;2022-10-16T07:47:14;8.30;;;7.00;;
11854;SDS011;5987;53.140;8.904;2022-10-16T07:50:17;9.03;;;6.60;;
11854;SDS011;5987;53.140;8.904;2022-10-16T07:53:22;8.90;;;6.83;;
11854;SDS011;5987;53.140;8.904;2022-10-16T07:56:27;9.70;;;6.57;;
11854;SDS011;5987;53.140;8.904;2022-10-16T07:59:33;9.23;;;5.97;;
11854;SDS011;5987;53.140;8.904;2022-10-16T08:02:37;7.43;;;5.70;;
11854;SDS011;5987;53.140;8.904;2022-10-16T08:05:41;7.50;;;5.80;;
11854;SDS011;5987;53.140;8.904;2022-10-16T08:08:46;7.93;;;5.70;;
11854;SDS011;5987;53.140;8.904;2022-10-16T08:11:50;10.50;;;5.60;;
11854;SDS011;5987;53.140;8.904;2022-10-16T08:14:54;6.70;;;4.90;;
11854;SDS011;5987;53.140;8.904;2022-10-16T08:17:58;8.07;;;4.90;;
11854;SDS011;5987;53.140;8.904;2022-10-16T08:21:04;4.70;;;4.30;;
11854;SDS011;5987;53.140;8.904;2022-10-16T08:24:18;5.43;;;4.07;;
11854;SDS011;5987;53.140;8.904;2022-10-16T08:27:22;7.20;;;3.67;;
11854;SDS011;5987;53.140;8.904;2022-10-16T08:30:26;8.43;;;3.90;;
11854;SDS011;5987;53.140;8.904;2022-10-16T08:33:30;8.53;;;4.17;;
11854;SDS011;5987;53.140;8.904;2022-10-16T08:36:37;6.73;;;3.80;;
11854;SDS011;5987;53.140;8.904;2022-10-16T08:39:42;5.90;;;3.63;;
11854;SDS011;5987;53.140;8.904;2022-10-16T08:42:55;4.47;;;3.37;;
11854;SDS011;5987;53.140;8.904;2022-10-16T08:46:35;5.03;;;3.17;;
11854;SDS011;5987;53.140;8.904;2022-10-16T08:49:54;5.37;;;2.97;;
11854;SDS011;5987;53.140;8.904;2022-10-16T08:53:03;5.60;;;3.13;;
11854;SDS011;5987;53.140;8.904;2022-10-16T08:56:10;4.63;;;2.80;;
11854;SDS011;5987;53.140;8.904;2022-10-16T08:59:14;4.70;;;2.50;;
11854;SDS011;5987;53.140;8.904;2022-10-16T09:02:23;7.60;;;2.40;;
11854;SDS011;5987;53.140;8.904;2022-10-16T09:05:41;5.03;;;2.60;;
11854;SDS011;5987;53.140;8.904;2022-10-16T09:09:17;3.40;;;2.47;;
11854;SDS011;5987;53.140;8.904;2022-10-16T09:12:58;5.13;;;2.70;;
11854;SDS011;5987;53.140;8.904;2022-10-16T09:16:14;4.63;;;2.10;;
11854;SDS011;5987;53.140;8.904;2022-10-16T09:19:26;5.70;;;2.50;;
11854;SDS011;5987;53.140;8.904;2022-10-16T09:22:39;8.93;;;2.70;;
11854;SDS011;5987;53.140;8.904;2022-10-16T09:25:43;5.43;;;1.97;;
11854;SDS011;5987;53.140;8.904;2022-10-16T09:28:52;5.63;;;2.20;;
11854;SDS011;5987;53.140;8.904;2022-10-16T09:31:56;2.37;;;1.97;;
11854;SDS011;5987;53.140;8.904;2022-10-16T09:35:15;5.03;;;1.60;;
11854;SDS011;5987;53.140;8.904;2022-10-16T09:38:24;4.13;;;2.03;;
11854;SDS011;5987;53.140;8.904;2022-10-16T09:41:33;4.97;;;1.87;;
11854;SDS011;5987;53.140;8.904;2022-10-16T09:44:41;3.20;;;1.87;;
11854;SDS011;5987;53.140;8.904;2022-10-16T09:47:45;4.33;;;1.70;;
11854;SDS011;5987;53.140;8.904;2022-10-16T09:50:55;4.57;;;1.53;;
11854;SDS011;5987;53.140;8.904;2022-10-16T09:54:00;7.63;;;1.60;;
11854;SDS011;5987;53.140;8.904;2022-10-16T09:57:15;3.33;;;1.30;;
11854;SDS011;5987;53.140;8.904;2022-10-16T10:00:21;2.63;;;1.30;;
11854;SDS011;5987;53.140;8.904;2022-10-16T10:03:32;4.53;;;1.17;;
11854;SDS011;5987;53.140;8.904;2022-10-16T10:06:41;4.23;;;1.30;;
11854;SDS011;5987;53.140;8.904;2022-10-16T10:09:48;3.27;;;1.50;;
11854;SDS011;5987;53.140;8.904;2022-10-16T10:12:52;5.27;;;1.50;;
11854;SDS011;5987;53.140;8.904;2022-10-16T10:15:58;6.27;;;1.50;;
11854;SDS011;5987;53.140;8.904;2022-10-16T10:19:02;6.67;;;1.70;;
11854;SDS011;5987;53.140;8.904;2022-10-16T10:22:13;2.77;;;1.13;;
11854;SDS011;5987;53.140;8.904;2022-10-16T10:25:36;3.63;;;1.30;;
11854;SDS011;5987;53.140;8.904;2022-10-16T10:28:54;5.57;;;1.43;;
11854;SDS011;5987;53.140;8.904;2022-10-16T10:32:11;6.10;;;1.23;;
11854;SDS011;5987;53.140;8.904;2022-10-16T10:35:32;3.20;;;1.40;;
11854;SDS011;5987;53.140;8.904;2022-10-16T10:38:47;2.50;;;1.53;;
11854;SDS011;5987;53.140;8.904;2022-10-16T10:42:00;5.97;;;1.40;;
11854;SDS011;5987;53.140;8.904;2022-10-16T10:45:17;3.30;;;1.20;;
11854;SDS011;5987;53.140;8.904;2022-10-16T10:48:42;3.13;;;1.20;;
11854;SDS011;5987;53.140;8.904;2022-10-16T10:52:02;3.73;;;1.30;;
11854;SDS011;5987;53.140;8.904;2022-10-16T10:55:37;5.00;;;1.17;;
11854;SDS011;5987;53.140;8.904;2022-10-16T10:58:56;6.47;;;1.40;;
11854;SDS011;5987;53.140;8.904;2022-10-16T11:02:23;3.33;;;1.10;;
11854;SDS011;5987;53.140;8.904;2022-10-16T11:05:42;6.27;;;1.27;;
11854;SDS011;5987;53.140;8.904;2022-10-16T11:08:48;2.40;;;1.07;;
11854;SDS011;5987;53.140;8.904;2022-10-16T11:12:02;5.77;;;1.67;;
11854;SDS011;5987;53.140;8.904;2022-10-16T11:15:16;2.73;;;1.00;;
11854;SDS011;5987;53.140;8.904;2022-10-16T11:18:28;2.47;;;0.87;;
11854;SDS011;5987;53.140;8.904;2022-10-16T11:21:47;4.07;;;1.03;;
11854;SDS011;5987;53.140;8.904;2022-10-16T11:25:00;3.27;;;0.90;;
11854;SDS011;5987;53.140;8.904;2022-10-16T11:28:16;4.50;;;1.13;;
11854;SDS011;5987;53.140;8.904;2022-10-16T11:31:32;4.53;;;1.50;;
11854;SDS011;5987;53.140;8.904;2022-10-16T11:34:42;3.00;;;0.90;;
11854;SDS011;5987;53.140;8.904;2022-10-16T11:37:53;3.97;;;0.93;;
11854;SDS011;5987;53.140;8.904;2022-10-16T11:41:02;3.77;;;0.97;;
11854;SDS011;5987;53.140;8.904;2022-10-16T11:44:19;3.10;;;1.20;;
11854;SDS011;5987;53.140;8.904;2022-10-16T11:47:44;4.97;;;1.07;;
11854;SDS011;5987;53.140;8.904;2022-10-16T11:51:03;3.20;;;1.10;;
11854;SDS011;5987;53.140;8.904;2022-10-16T11:54:20;5.13;;;1.17;;
11854;SDS011;5987;53.140;8.904;2022-10-16T11:57:35;2.40;;;0.80;;
11854;SDS011;5987;53.140;8.904;2022-10-16T12:00:51;4.30;;;1.13;;
11854;SDS011;5987;53.140;8.904;2022-10-16T12:04:15;4.13;;;1.10;;
11854;SDS011;5987;53.140;8.904;2022-10-16T12:07:32;3.43;;;1.10;;
11854;SDS011;5987;53.140;8.904;2022-10-16T12:10:44;5.33;;;1.23;;
11854;SDS011;5987;53.140;8.904;2022-10-16T12:13:50;4.60;;;1.10;;
11854;SDS011;5987;53.140;8.904;2022-10-16T12:16:55;4.07;;;1.20;;
11854;SDS011;5987;53.140;8.904;2022-10-16T12:20:15;3.63;;;1.20;;
11854;SDS011;5987;53.140;8.904;2022-10-16T12:23:25;4.27;;;1.10;;
11854;SDS011;5987;53.140;8.904;2022-10-16T12:26:31;4.97;;;1.00;;
11854;SDS011;5987;53.140;8.904;2022-10-16T12:29:40;3.50;;;1.10;;
11854;SDS011;5987;53.140;8.904;2022-10-16T12:32:52;5.70;;;1.37;;
11854;SDS011;5987;53.140;8.904;2022-10-16T12:35:59;5.00;;;1.03;;
11854;SDS011;5987;53.140;8.904;2022-10-16T12:39:16;2.83;;;0.90;;
11854;SDS011;5987;53.140;8.904;2022-10-16T12:42:33;3.80;;;1.00;;
11854;SDS011;5987;53.140;8.904;2022-10-16T12:45:38;3.43;;;1.03;;
11854;SDS011;5987;53.140;8.904;2022-10-16T12:48:43;4.33;;;0.93;;
11854;SDS011;5987;53.140;8.904;2022-10-16T12:55:33;3.37;;;0.93;;
11854;SDS011;5987;53.140;8.904;2022-10-16T12:58:54;4.23;;;0.97;;
11854;SDS011;5987;53.140;8.904;2022-10-16T13:02:20;3.23;;;1.10;;
11854;SDS011;5987;53.140;8.904;2022-10-16T13:05:55;7.37;;;1.27;;
11854;SDS011;5987;53.140;8.904;2022-10-16T13:09:19;2.93;;;0.80;;
11854;SDS011;5987;53.140;8.904;2022-10-16T13:16:37;6.50;;;1.00;;
11854;SDS011;5987;53.140;8.904;2022-10-16T13:20:00;6.60;;;1.37;;
11854;SDS011;5987;53.140;8.904;2022-10-16T13:23:18;4.07;;;0.97;;
11854;SDS011;5987;53.140;8.904;2022-10-16T13:26:33;5.53;;;1.57;;
11854;SDS011;5987;53.140;8.904;2022-10-16T13:33:00;3.23;;;0.93;;
11854;SDS011;5987;53.140;8.904;2022-10-16T13:36:17;7.50;;;1.17;;
11854;SDS011;5987;53.140;8.904;2022-10-16T13:39:25;4.93;;;1.23;;
11854;SDS011;5987;53.140;8.904;2022-10-16T13:42:31;2.60;;;0.87;;
11854;SDS011;5987;53.140;8.904;2022-10-16T13:45:36;3.07;;;0.80;;
11854;SDS011;5987;53.140;8.904;2022-10-16T13:48:41;5.20;;;1.00;;
11854;SDS011;5987;53.140;8.904;2022-10-16T13:51:53;3.40;;;1.33;;
11854;SDS011;5987;53.140;8.904;2022-10-16T13:54:58;5.80;;;1.03;;
11854;SDS011;5987;53.140;8.904;2022-10-16T13:58:07;4.40;;;1.20;;
11854;SDS011;5987;53.140;8.904;2022-10-16T14:01:16;3.70;;;1.10;;
11854;SDS011;5987;53.140;8.904;2022-10-16T14:04:31;5.63;;;1.07;;
11854;SDS011;5987;53.140;8.904;2022-10-16T14:07:36;5.23;;;1.07;;
11854;SDS011;5987;53.140;8.904;2022-10-16T14:10:42;4.63;;;1.30;;
11854;SDS011;5987;53.140;8.904;2022-10-16T14:13:50;3.30;;;1.00;;
11854;SDS011;5987;53.140;8.904;2022-10-16T14:16:55;3.20;;;1.10;;
11854;SDS011;5987;53.140;8.904;2022-10-16T14:20:03;4.43;;;0.90;;
11854;SDS011;5987;53.140;8.904;2022-10-16T14:23:21;4.30;;;1.50;;
11854;SDS011;5987;53.140;8.904;2022-10-16T14:26:39;3.60;;;1.10;;
11854;SDS011;5987;53.140;8.904;2022-10-16T14:30:01;5.30;;;1.73;;
11854;SDS011;5987;53.140;8.904;2022-10-16T14:33:20;4.00;;;1.30;;
11854;SDS011;5987;53.140;8.904;2022-10-16T14:36:28;5.20;;;1.07;;
11854;SDS011;5987;53.140;8.904;2022-10-16T14:39:33;5.30;;;1.20;;
11854;SDS011;5987;53.140;8.904;2022-10-16T14:42:38;4.53;;;0.90;;
11854;SDS011;5987;53.140;8.904;2022-10-16T14:45:50;4.10;;;0.90;;
11854;SDS011;5987;53.140;8.904;2022-10-16T14:48:59;4.13;;;1.00;;
11854;SDS011;5987;53.140;8.904;2022-10-16T14:52:17;5.53;;;1.30;;
11854;SDS011;5987;53.140;8.904;2022-10-16T14:55:21;5.33;;;1.30;;
11854;SDS011;5987;53.140;8.904;2022-10-16T14:58:30;5.17;;;1.20;;
11854;SDS011;5987;53.140;8.904;2022-10-16T15:01:34;4.03;;;1.43;;
11854;SDS011;5987;53.140;8.904;2022-10-16T15:04:37;5.07;;;1.50;;
11854;SDS011;5987;53.140;8.904;2022-10-16T15:07:42;6.27;;;1.10;;
11854;SDS011;5987;53.140;8.904;2022-10-16T15:10:47;3.23;;;1.13;;
11854;SDS011;5987;53.140;8.904;2022-10-16T15:13:50;8.30;;;1.17;;
11854;SDS011;5987;53.140;8.904;2022-10-16T15:16:54;5.23;;;1.40;;
11854;SDS011;5987;53.140;8.904;2022-10-16T15:19:58;7.40;;;1.47;;
11854;SDS011;5987;53.140;8.904;2022-10-16T15:23:04;4.23;;;1.13;;
11854;SDS011;5987;53.140;8.904;2022-10-16T15:26:13;5.83;;;1.40;;
11854;SDS011;5987;53.140;8.904;2022-10-16T15:29:18;5.63;;;1.30;;
11854;SDS011;5987;53.140;8.904;2022-10-16T15:32:22;4.43;;;1.27;;
11854;SDS011;5987;53.140;8.904;2022-10-16T15:35:25;5.47;;;1.07;;
11854;SDS011;5987;53.140;8.904;2022-10-16T15:38:30;7.80;;;1.93;;
11854;SDS011;5987;53.140;8.904;2022-10-16T15:41:34;5.37;;;1.70;;
11854;SDS011;5987;53.140;8.904;2022-10-16T15:44:38;4.97;;;1.37;;
11854;SDS011;5987;53.140;8.904;2022-10-16T15:47:41;4.30;;;1.10;;
11854;SDS011;5987;53.140;8.904;2022-10-16T15:50:46;3.83;;;1.17;;
11854;SDS011;5987;53.140;8.904;2022-10-16T15:53:51;3.37;;;1.17;;
11854;SDS011;5987;53.140;8.904;2022-10-16T15:56:55;6.10;;;1.40;;
11854;SDS011;5987;53.140;8.904;2022-10-16T15:59:58;6.03;;;1.30;;
11854;SDS011;5987;53.140;8.904;2022-10-16T16:03:06;3.90;;;1.17;;
11854;SDS011;5987;53.140;8.904;2022-10-16T16:06:11;5.33;;;1.33;;
11854;SDS011;5987;53.140;8.904;2022-10-16T16:09:18;5.57;;;1.80;;
11854;SDS011;5987;53.140;8.904;2022-10-16T16:12:21;8.20;;;2.00;;
11854;SDS011;5987;53.140;8.904;2022-10-16T16:15:26;5.10;;;2.27;;
11854;SDS011;5987;53.140;8.904;2022-10-16T16:18:29;5.53;;;1.93;;
11854;SDS011;5987;53.140;8.904;2022-10-16T16:21:34;6.87;;;1.50;;
11854;SDS011;5987;53.140;8.904;2022-10-16T16:24:39;3.93;;;1.30;;
11854;SDS011;5987;53.140;8.904;2022-10-16T16:27:42;3.20;;;1.50;;
11854;SDS011;5987;53.140;8.904;2022-10-16T16:30:46;2.77;;;1.53;;
11854;SDS011;5987;53.140;8.904;2022-10-16T16:33:54;3.63;;;1.97;;
11854;SDS011;5987;53.140;8.904;2022-10-16T16:36:59;6.57;;;1.90;;
11854;SDS011;5987;53.140;8.904;2022-10-16T16:40:04;6.40;;;2.43;;
11854;SDS011;5987;53.140;8.904;2022-10-16T16:43:08;5.90;;;2.30;;
11854;SDS011;5987;53.140;8.904;2022-10-16T16:46:12;5.50;;;2.73;;
11854;SDS011;5987;53.140;8.904;2022-10-16T16:49:17;6.57;;;2.80;;
11854;SDS011;5987;53.140;8.904;2022-10-16T16:52:21;7.77;;;3.73;;
11854;SDS011;5987;53.140;8.904;2022-10-16T16:55:26;13.97;;;6.70;;
11854;SDS011;5987;53.140;8.904;2022-10-16T16:58:30;13.80;;;6.73;;
11854;SDS011;5987;53.140;8.904;2022-10-16T17:01:35;17.13;;;6.67;;
11854;SDS011;5987;53.140;8.904;2022-10-16T17:04:38;10.73;;;6.47;;
11854;SDS011;5987;53.140;8.904;2022-10-16T17:07:43;13.60;;;5.97;;
11854;SDS011;5987;53.140;8.904;2022-10-16T17:10:48;7.00;;;3.53;;
11854;SDS011;5987;53.140;8.904;2022-10-16T17:13:55;8.30;;;3.67;;
11854;SDS011;5987;53.140;8.904;2022-10-16T17:17:00;10.03;;;3.20;;
11854;SDS011;5987;53.140;8.904;2022-10-16T17:20:04;7.87;;;5.27;;
11854;SDS011;5987;53.140;8.904;2022-10-16T17:23:10;10.63;;;4.80;;
11854;SDS011;5987;53.140;8.904;2022-10-16T17:26:16;11.10;;;5.93;;
11854;SDS011;5987;53.140;8.904;2022-10-16T17:29:20;6.40;;;5.63;;
11854;SDS011;5987;53.140;8.904;2022-10-16T17:32:24;8.87;;;4.33;;
11854;SDS011;5987;53.140;8.904;2022-10-16T17:35:29;6.63;;;4.63;;
11854;SDS011;5987;53.140;8.904;2022-10-16T17:38:39;10.97;;;4.23;;
11854;SDS011;5987;53.140;8.904;2022-10-16T17:41:45;8.93;;;3.60;;
11854;SDS011;5987;53.140;8.904;2022-10-16T17:44:49;9.23;;;4.43;;
11854;SDS011;5987;53.140;8.904;2022-10-16T17:47:53;9.50;;;4.70;;
11854;SDS011;5987;53.140;8.904;2022-10-16T17:50:57;7.37;;;5.13;;
11854;SDS011;5987;53.140;8.904;2022-10-16T17:54:01;12.90;;;5.67;;
11854;SDS011;5987;53.140;8.904;2022-10-16T17:57:06;9.13;;;5.00;;
11854;SDS011;5987;53.140;8.904;2022-10-16T18:00:10;10.03;;;7.13;;
11854;SDS011;5987;53.140;8.904;2022-10-16T18:03:15;10.13;;;6.93;;
11854;SDS011;5987;53.140;8.904;2022-10-16T18:06:19;10.13;;;7.20;;
11854;SDS011;5987;53.140;8.904;2022-10-16T18:09:24;8.77;;;6.70;;
11854;SDS011;5987;53.140;8.904;2022-10-16T18:12:29;14.47;;;10.57;;
11854;SDS011;5987;53.140;8.904;2022-10-16T18:15:33;12.47;;;9.13;;
11854;SDS011;5987;53.140;8.904;2022-10-16T18:18:38;13.57;;;8.67;;
11854;SDS011;5987;53.140;8.904;2022-10-16T18:21:43;10.10;;;7.13;;
11854;SDS011;5987;53.140;8.904;2022-10-16T18:24:49;15.13;;;7.77;;
11854;SDS011;5987;53.140;8.904;2022-10-16T18:27:54;12.53;;;9.00;;
11854;SDS011;5987;53.140;8.904;2022-10-16T18:30:59;12.90;;;7.40;;
11854;SDS011;5987;53.140;8.904;2022-10-16T18:34:05;12.87;;;7.43;;
11854;SDS011;5987;53.140;8.904;2022-10-16T18:37:09;12.30;;;5.10;;
11854;SDS011;5987;53.140;8.904;2022-10-16T18:40:14;13.20;;;5.60;;
11854;SDS011;5987;53.140;8.904;2022-10-16T18:43:19;8.67;;;4.33;;
11854;SDS011;5987;53.140;8.904;2022-10-16T18:46:23;7.53;;;5.43;;
11854;SDS011;5987;53.140;8.904;2022-10-16T18:49:28;10.07;;;4.53;;
11854;SDS011;5987;53.140;8.904;2022-10-16T18:52:32;10.40;;;5.33;;
11854;SDS011;5987;53.140;8.904;2022-10-16T18:55:35;7.90;;;4.47;;
11854;SDS011;5987;53.140;8.904;2022-10-16T18:58:41;8.37;;;5.27;;
11854;SDS011;5987;53.140;8.904;2022-10-16T19:01:47;11.17;;;4.67;;
11854;SDS011;5987;53.140;8.904;2022-10-16T19:04:52;12.70;;;5.60;;
11854;SDS011;5987;53.140;8.904;2022-10-16T19:07:56;9.07;;;4.17;;
11854;SDS011;5987;53.140;8.904;2022-10-16T19:11:03;8.60;;;4.40;;
11854;SDS011;5987;53.140;8.904;2022-10-16T19:14:10;11.20;;;4.40;;
11854;SDS011;5987;53.140;8.904;2022-10-16T19:17:17;9.30;;;5.00;;